Time;durP1;ratioP1;P1;durP2;ratioP2;P2;SDS_P1;SDS_P2;PMS_P1;PMS_P2;Temp;Humidity;BMP_temperature;BMP_pressure;BME280_temperature;BME280_humidity;BME280_pressure;Samples;Min_cycle;Max_cycle;Signal;HPM_P1;HPM_P2
2024/01/11 00:00:00;;;;;;;33.13;16.17;;;-2.80;99.90;;;;;;4883404;29;20082;-75
2024/01/11 00:02:25;;;;;;;33.63;17.83;;;-2.80;99.90;;;;;;4866968;29;20128;-75
2024/01/11 00:04:51;;;;;;;31.52;15.52;;;-2.80;99.90;;;;;;4866691;29;20518;-75
2024/01/11 00:07:18;;;;;;;38.50;17.35;;;-2.80;99.90;;;;;;4866505;29;20507;-75
2024/01/11 00:09:43;;;;;;;35.13;17.08;;;-2.80;99.90;;;;;;4866489;29;20052;-75
2024/01/11 00:12:09;;;;;;;32.78;15.98;;;-2.80;99.90;;;;;;4866642;29;20052;-75
2024/01/11 00:14:38;;;;;;;31.95;16.80;;;-2.90;99.90;;;;;;4866460;29;20048;-75
2024/01/11 00:17:04;;;;;;;34.38;17.05;;;-2.90;99.90;;;;;;4866403;29;20077;-75
2024/01/11 00:19:29;;;;;;;36.70;16.42;;;-2.90;99.90;;;;;;4866399;29;20045;-75
2024/01/11 00:21:55;;;;;;;36.50;17.00;;;-2.90;99.90;;;;;;4866343;29;20049;-75
2024/01/11 00:24:23;;;;;;;32.65;16.65;;;-2.90;99.90;;;;;;4866120;29;20386;-75
2024/01/11 00:26:49;;;;;;;41.72;18.55;;;-2.90;99.90;;;;;;4866138;29;20500;-75
2024/01/11 00:29:28;;;;;;;34.92;17.25;;;-2.90;99.90;;;;;;4866466;29;20091;-75
2024/01/11 00:31:54;;;;;;;34.97;16.58;;;-2.90;99.90;;;;;;4866120;29;20135;-75
2024/01/11 00:34:19;;;;;;;35.13;16.85;;;-2.90;99.90;;;;;;4866242;29;20080;-75
2024/01/11 00:36:45;;;;;;;36.65;18.38;;;-3.00;99.90;;;;;;4865965;29;20041;-75
2024/01/11 00:39:11;;;;;;;35.63;16.70;;;-2.90;99.90;;;;;;4865890;29;20049;-75
2024/01/11 00:41:37;;;;;;;36.47;17.88;;;-2.90;99.90;;;;;;4865881;29;20059;-75
2024/01/11 00:44:03;;;;;;;33.67;15.77;;;-3.00;99.90;;;;;;4866270;29;20045;-75
2024/01/11 00:46:28;;;;;;;40.42;17.35;;;-3.00;99.90;;;;;;4865737;29;20108;-76
2024/01/11 00:48:54;;;;;;;37.85;18.02;;;-2.90;99.90;;;;;;4882848;29;20053;-75
2024/01/11 00:51:20;;;;;;;35.47;17.55;;;-3.00;99.90;;;;;;4865741;29;20159;-75
2024/01/11 00:53:45;;;;;;;38.22;17.42;;;-3.00;99.90;;;;;;4865910;29;20498;-75
2024/01/11 00:56:37;;;;;;;39.10;18.15;;;-3.00;99.90;;;;;;4865713;29;20052;-75
2024/01/11 00:59:12;;;;;;;36.67;16.83;;;-3.00;99.90;;;;;;4863108;29;20113;-75
2024/01/11 01:01:48;;;;;;;37.72;17.10;;;-3.00;99.90;;;;;;4865802;29;20067;-75
2024/01/11 01:04:14;;;;;;;34.88;16.75;;;-3.10;99.90;;;;;;4865651;29;20041;-75
2024/01/11 01:06:41;;;;;;;36.08;17.50;;;-3.20;99.90;;;;;;4865687;29;20113;-75
2024/01/11 01:09:07;;;;;;;36.42;17.58;;;-3.20;99.90;;;;;;4865622;29;20172;-75
2024/01/11 01:11:32;;;;;;;37.28;17.95;;;-3.30;99.90;;;;;;4865535;29;20144;-75
2024/01/11 01:13:58;;;;;;;36.22;18.92;;;-3.40;99.90;;;;;;4865575;29;20052;-75
2024/01/11 01:16:23;;;;;;;35.45;17.30;;;-3.50;99.90;;;;;;4865315;29;20112;-75
2024/01/11 01:18:49;;;;;;;32.90;17.13;;;-3.50;99.90;;;;;;4865210;29;20052;-75
2024/01/11 01:21:15;;;;;;;40.22;18.75;;;-3.40;99.90;;;;;;4865610;29;20147;-75
2024/01/11 01:23:40;;;;;;;35.42;16.45;;;-3.50;99.90;;;;;;4865555;29;20052;-75
2024/01/11 01:26:07;;;;;;;38.30;17.90;;;-3.50;99.90;;;;;;4865177;29;20056;-75
2024/01/11 01:28:32;;;;;;;38.83;17.58;;;-3.60;99.90;;;;;;4881973;29;20045;-75
2024/01/11 01:30:58;;;;;;;36.00;16.92;;;-3.60;99.90;;;;;;4865047;29;20101;-75
2024/01/11 01:33:23;;;;;;;34.80;17.98;;;-3.70;99.90;;;;;;4865068;29;20105;-75
2024/01/11 01:35:49;;;;;;;38.55;18.20;;;-3.70;99.90;;;;;;4865367;29;20056;-75
2024/01/11 01:38:15;;;;;;;34.88;17.75;;;-3.70;99.90;;;;;;4881697;29;20087;-75
2024/01/11 01:40:41;;;;;;;40.15;17.88;;;-3.80;99.90;;;;;;4865080;29;20044;-75
2024/01/11 01:43:10;;;;;;;37.88;17.42;;;-3.80;99.90;;;;;;4865065;29;20048;-75
2024/01/11 01:45:36;;;;;;;36.25;16.85;;;-3.80;99.90;;;;;;4865036;29;20108;-76
2024/01/11 01:48:02;;;;;;;38.28;18.27;;;-3.80;99.90;;;;;;4864892;29;20454;-75
2024/01/11 01:50:28;;;;;;;39.08;17.70;;;-3.80;99.90;;;;;;4865030;29;20553;-75
2024/01/11 01:52:55;;;;;;;38.35;18.58;;;-3.80;99.90;;;;;;4865069;29;20048;-75
2024/01/11 01:55:22;;;;;;;38.95;18.52;;;-3.90;99.90;;;;;;4864969;29;20049;-76
2024/01/11 01:57:50;;;;;;;37.88;17.35;;;-3.90;99.90;;;;;;4864504;29;20049;-76
2024/01/11 02:00:16;;;;;;;35.75;17.50;;;-3.90;99.90;;;;;;4864488;29;20041;-75
2024/01/11 02:02:46;;;;;;;38.22;19.00;;;-3.80;99.90;;;;;;4864846;29;20044;-75
2024/01/11 02:05:14;;;;;;;42.55;18.30;;;-3.80;99.90;;;;;;4864455;29;20132;-76
2024/01/11 02:07:40;;;;;;;40.35;19.40;;;-3.80;99.90;;;;;;4863305;29;20084;-75
2024/01/11 02:10:07;;;;;;;38.35;17.98;;;-3.80;99.90;;;;;;4864298;29;20057;-76
2024/01/11 02:12:35;;;;;;;39.47;18.20;;;-3.80;99.90;;;;;;4864292;29;20049;-76
2024/01/11 02:15:03;;;;;;;38.38;17.00;;;-3.80;99.90;;;;;;4864087;29;20512;-76
2024/01/11 02:17:29;;;;;;;41.22;17.30;;;-3.80;99.90;;;;;;4881043;29;20037;-75
2024/01/11 02:19:55;;;;;;;41.75;19.85;;;-3.80;99.90;;;;;;4864551;29;20520;-75
2024/01/11 02:22:40;;;;;;;43.75;19.25;;;-3.80;99.90;;;;;;4864153;29;20052;-76
2024/01/11 02:25:06;;;;;;;41.65;19.45;;;-3.80;99.90;;;;;;4864398;29;20089;-75
2024/01/11 02:27:48;;;;;;;38.60;17.40;;;-3.80;99.90;;;;;;4863999;29;20057;-75
2024/01/11 02:30:15;;;;;;;43.20;18.90;;;-3.80;99.90;;;;;;4864160;29;20049;-76
2024/01/11 02:32:47;;;;;;;38.40;18.02;;;-3.70;99.90;;;;;;4864290;29;20088;-75
2024/01/11 02:35:15;;;;;;;42.97;19.08;;;-3.80;99.90;;;;;;4864105;29;20393;-76
2024/01/11 02:37:40;;;;;;;43.50;18.92;;;-3.80;99.90;;;;;;4864101;29;20093;-76
2024/01/11 02:40:08;;;;;;;44.95;19.05;;;-3.80;99.90;;;;;;4863927;29;20077;-76
2024/01/11 02:42:34;;;;;;;42.15;18.58;;;-3.80;99.90;;;;;;4864214;29;20045;-76
2024/01/11 02:45:00;;;;;;;37.20;17.38;;;-3.80;99.90;;;;;;4864121;29;20052;-75
2024/01/11 02:47:34;;;;;;;42.95;19.73;;;-3.70;99.90;;;;;;4863807;29;20041;-76
2024/01/11 02:50:03;;;;;;;39.75;19.73;;;-3.70;99.90;;;;;;4863567;29;20049;-76
2024/01/11 02:52:29;;;;;;;42.80;18.73;;;-3.70;99.90;;;;;;4879417;29;20056;-76
2024/01/11 02:54:55;;;;;;;40.85;19.25;;;-3.70;99.90;;;;;;4880485;29;20499;-76
2024/01/11 02:57:20;;;;;;;43.80;19.42;;;-3.70;99.90;;;;;;4880654;29;20425;-76
2024/01/11 02:59:46;;;;;;;42.10;18.95;;;-3.70;99.90;;;;;;4863733;29;20423;-75
2024/01/11 03:02:11;;;;;;;39.28;19.80;;;-3.60;99.90;;;;;;4863645;29;20052;-76
2024/01/11 03:04:37;;;;;;;43.10;19.17;;;-3.60;99.90;;;;;;4863272;29;20100;-76
2024/01/11 03:07:03;;;;;;;44.70;20.55;;;-3.60;99.90;;;;;;4863412;29;20056;-76
2024/01/11 03:09:29;;;;;;;43.65;19.30;;;-3.60;99.90;;;;;;4863497;29;20121;-76
2024/01/11 03:11:54;;;;;;;42.70;19.67;;;-3.60;99.90;;;;;;4863731;29;20052;-76
2024/01/11 03:14:20;;;;;;;44.08;18.77;;;-3.50;99.90;;;;;;4863725;29;20049;-75
2024/01/11 03:16:45;;;;;;;45.85;19.15;;;-3.50;99.90;;;;;;4863270;29;20570;-75
2024/01/11 03:19:11;;;;;;;41.25;19.92;;;-3.50;99.90;;;;;;4863360;29;20188;-75
2024/01/11 03:21:42;;;;;;;44.00;18.15;;;-3.50;99.90;;;;;;4863282;29;20056;-76
2024/01/11 03:24:07;;;;;;;38.53;19.48;;;-3.40;99.90;;;;;;4863428;29;20532;-75
2024/01/11 03:26:33;;;;;;;40.70;18.23;;;-3.40;99.90;;;;;;4862529;29;20049;-75
2024/01/11 03:28:59;;;;;;;45.72;19.60;;;-3.30;99.90;;;;;;4863536;29;20136;-75
2024/01/11 03:31:24;;;;;;;40.72;18.70;;;-3.30;99.90;;;;;;4863106;29;20044;-75
2024/01/11 03:33:50;;;;;;;41.80;19.48;;;-3.20;99.90;;;;;;4863153;29;20093;-75
2024/01/11 03:36:15;;;;;;;43.92;19.02;;;-3.20;99.90;;;;;;4863413;29;20040;-75
2024/01/11 03:38:41;;;;;;;45.00;18.70;;;-3.20;99.90;;;;;;4863192;29;20060;-75
2024/01/11 03:41:10;;;;;;;46.03;21.73;;;-3.10;99.90;;;;;;4863374;29;20089;-75
2024/01/11 03:43:36;;;;;;;40.35;19.38;;;-3.00;99.90;;;;;;4863341;29;20430;-76
2024/01/11 03:46:03;;;;;;;50.17;21.50;;;-3.00;99.90;;;;;;4862936;29;20041;-76
2024/01/11 03:48:29;;;;;;;48.13;20.67;;;-3.00;99.90;;;;;;4862901;29;20049;-75
2024/01/11 03:50:54;;;;;;;46.97;21.00;;;-2.90;99.90;;;;;;4863055;29;20056;-75
2024/01/11 03:53:20;;;;;;;41.72;19.98;;;-2.90;99.90;;;;;;4863244;29;20095;-75
2024/01/11 03:55:45;;;;;;;46.15;20.23;;;-2.80;99.90;;;;;;4863342;29;20081;-75
2024/01/11 03:58:11;;;;;;;44.10;20.38;;;-2.80;99.90;;;;;;4863108;29;20061;-75
2024/01/11 04:00:37;;;;;;;49.72;21.38;;;-2.80;99.90;;;;;;4863181;29;20045;-75
2024/01/11 04:03:02;;;;;;;46.83;21.65;;;-2.80;99.90;;;;;;4862927;29;20076;-75
2024/01/11 04:05:28;;;;;;;44.30;19.83;;;-2.70;99.90;;;;;;4862667;29;20093;-76
2024/01/11 04:07:54;;;;;;;43.03;19.08;;;-2.70;99.90;;;;;;4862971;29;20064;-75
2024/01/11 04:10:19;;;;;;;45.17;20.42;;;-2.70;99.90;;;;;;4862901;29;20060;-75
2024/01/11 04:12:45;;;;;;;48.17;20.92;;;-2.70;99.90;;;;;;4862980;29;20052;-75
2024/01/11 04:15:14;;;;;;;42.58;20.08;;;-2.60;99.90;;;;;;4862641;29;20405;-75
2024/01/11 04:17:40;;;;;;;44.17;19.50;;;-2.60;99.90;;;;;;4862961;29;20056;-75
2024/01/11 04:20:08;;;;;;;47.28;19.10;;;-2.60;99.90;;;;;;4862946;29;20084;-75
2024/01/11 04:22:34;;;;;;;46.38;20.90;;;-2.50;99.90;;;;;;4863047;29;20129;-75
2024/01/11 04:25:00;;;;;;;46.90;21.23;;;-2.50;99.90;;;;;;4862802;29;20383;-75
2024/01/11 04:27:26;;;;;;;43.60;20.48;;;-2.50;99.90;;;;;;4862695;29;20509;-76
2024/01/11 04:29:51;;;;;;;38.72;20.27;;;-2.50;99.90;;;;;;4862910;29;20107;-75
2024/01/11 04:32:17;;;;;;;43.95;19.50;;;-2.40;99.90;;;;;;4862678;29;20557;-75
2024/01/11 04:34:43;;;;;;;41.40;19.33;;;-2.40;99.90;;;;;;4878115;29;20105;-75
2024/01/11 04:37:09;;;;;;;41.90;21.45;;;-2.30;99.90;;;;;;4862705;29;20049;-75
2024/01/11 04:39:34;;;;;;;44.08;20.20;;;-2.40;99.90;;;;;;4866230;29;20049;-76
2024/01/11 04:42:03;;;;;;;45.25;20.63;;;-2.30;99.90;;;;;;4882737;29;20088;-75
2024/01/11 04:44:31;;;;;;;49.13;20.17;;;-2.30;99.90;;;;;;4866042;29;20048;-75
2024/01/11 04:46:56;;;;;;;46.28;19.98;;;-2.30;99.90;;;;;;4881319;29;20076;-75
2024/01/11 04:49:22;;;;;;;45.55;20.50;;;-2.20;99.90;;;;;;4866147;29;20076;-75
2024/01/11 04:51:51;;;;;;;48.28;20.83;;;-2.20;99.90;;;;;;4881384;29;20059;-75
2024/01/11 04:54:16;;;;;;;44.88;19.02;;;-2.20;99.90;;;;;;4882692;29;20077;-76
2024/01/11 04:56:42;;;;;;;41.47;20.08;;;-2.20;99.90;;;;;;4865645;29;20045;-75
2024/01/11 04:59:07;;;;;;;43.47;19.65;;;-2.10;99.90;;;;;;4865936;29;20057;-75
2024/01/11 05:01:33;;;;;;;48.50;21.98;;;-2.10;99.90;;;;;;4865673;29;20446;-75
2024/01/11 05:03:59;;;;;;;42.97;19.90;;;-2.10;99.90;;;;;;4865713;29;20049;-75
2024/01/11 05:06:24;;;;;;;46.25;20.63;;;-2.00;99.90;;;;;;4865448;29;20061;-75
2024/01/11 05:08:54;;;;;;;44.70;20.15;;;-2.00;99.90;;;;;;4865805;29;20053;-75
2024/01/11 05:11:21;;;;;;;45.17;19.88;;;-2.00;99.90;;;;;;4865515;29;20112;-75
2024/01/11 05:13:48;;;;;;;41.03;19.85;;;-2.00;99.90;;;;;;4865241;29;20136;-75
2024/01/11 05:16:21;;;;;;;47.17;20.15;;;-2.00;99.90;;;;;;4865335;29;20409;-75
2024/01/11 05:18:46;;;;;;;43.20;19.50;;;-1.90;99.90;;;;;;4865552;29;20139;-75
2024/01/11 05:21:12;;;;;;;43.75;19.42;;;-1.90;99.90;;;;;;4865441;29;20135;-75
2024/01/11 05:23:38;;;;;;;50.08;20.95;;;-1.90;99.90;;;;;;4865372;29;20048;-75
2024/01/11 05:26:03;;;;;;;47.97;21.17;;;-1.90;99.90;;;;;;4865070;29;20101;-75
2024/01/11 05:28:29;;;;;;;45.40;19.58;;;-1.80;99.90;;;;;;4865183;29;20537;-75
2024/01/11 05:30:54;;;;;;;51.00;22.75;;;-1.80;99.90;;;;;;4865122;29;20052;-75
2024/01/11 05:33:20;;;;;;;43.25;19.05;;;-1.70;99.90;;;;;;4881914;29;20049;-76
2024/01/11 05:35:46;;;;;;;48.83;22.10;;;-1.70;99.90;;;;;;4865050;29;20045;-75
2024/01/11 05:38:11;;;;;;;47.67;20.05;;;-1.70;99.90;;;;;;4865028;29;20064;-75
2024/01/11 05:40:37;;;;;;;42.63;21.60;;;-1.70;99.90;;;;;;4865180;29;20079;-75
2024/01/11 05:43:03;;;;;;;41.40;20.35;;;-1.70;99.90;;;;;;4864711;29;20045;-75
2024/01/11 05:45:29;;;;;;;50.53;22.40;;;-1.70;99.90;;;;;;4865084;29;20049;-75
2024/01/11 05:47:54;;;;;;;44.45;21.02;;;-1.60;99.90;;;;;;4865186;29;20049;-75
2024/01/11 05:50:20;;;;;;;48.67;20.40;;;-1.60;99.90;;;;;;4864103;29;20397;-75
2024/01/11 05:52:46;;;;;;;48.40;21.08;;;-1.60;99.90;;;;;;4864525;29;20053;-75
2024/01/11 05:55:12;;;;;;;47.92;21.80;;;-1.50;99.90;;;;;;4864679;29;20053;-75
2024/01/11 05:57:37;;;;;;;51.45;22.58;;;-1.50;99.90;;;;;;4864528;29;20052;-75
2024/01/11 06:00:09;;;;;;;47.58;21.38;;;-1.50;99.90;;;;;;4864669;29;20056;-75
2024/01/11 06:02:36;;;;;;;47.03;21.58;;;-1.50;99.90;;;;;;4864674;29;20055;-75
2024/01/11 06:05:03;;;;;;;45.72;20.95;;;-1.50;99.90;;;;;;4864314;29;20139;-75
2024/01/11 06:07:30;;;;;;;46.10;21.13;;;-1.40;99.90;;;;;;4864305;29;20466;-75
2024/01/11 06:09:55;;;;;;;46.17;21.25;;;-1.40;99.90;;;;;;4864400;29;20041;-75
2024/01/11 06:12:21;;;;;;;48.60;21.90;;;-1.40;99.90;;;;;;4864636;29;20053;-75
2024/01/11 06:14:47;;;;;;;47.33;22.02;;;-1.30;99.90;;;;;;4864430;29;20413;-75
2024/01/11 06:17:15;;;;;;;50.22;22.30;;;-1.30;99.90;;;;;;4864394;29;20052;-75
2024/01/11 06:19:41;;;;;;;47.08;23.25;;;-1.30;99.90;;;;;;4864584;29;20072;-75
2024/01/11 06:22:06;;;;;;;53.28;22.85;;;-1.30;99.90;;;;;;4864431;29;20085;-75
2024/01/11 06:24:32;;;;;;;44.92;21.77;;;-1.20;99.90;;;;;;4864477;29;20053;-75
2024/01/11 06:26:58;;;;;;;46.33;22.83;;;-1.20;99.90;;;;;;4864006;29;20144;-75
2024/01/11 06:29:23;;;;;;;44.95;21.77;;;-1.20;99.90;;;;;;4864113;29;20469;-75
2024/01/11 06:31:49;;;;;;;44.83;21.38;;;-1.20;99.90;;;;;;4864163;29;20100;-75
2024/01/11 06:34:14;;;;;;;43.67;22.63;;;-1.20;99.90;;;;;;4864354;29;20056;-75
2024/01/11 06:36:40;;;;;;;49.50;23.50;;;-1.20;99.90;;;;;;4880537;29;20060;-75
2024/01/11 06:39:06;;;;;;;55.92;23.75;;;-1.10;99.90;;;;;;4880682;29;20103;-75
2024/01/11 06:41:34;;;;;;;51.08;22.85;;;-1.10;99.90;;;;;;4864178;29;20049;-75
2024/01/11 06:44:03;;;;;;;51.47;24.45;;;-1.00;99.90;;;;;;4863855;29;20445;-75
2024/01/11 06:46:28;;;;;;;48.10;23.23;;;-1.10;99.90;;;;;;4863870;29;20620;-75
2024/01/11 06:48:54;;;;;;;45.13;21.77;;;-1.00;99.90;;;;;;4863779;29;20072;-75
2024/01/11 06:51:23;;;;;;;50.60;21.98;;;-1.00;99.90;;;;;;4863536;29;20045;-75
2024/01/11 06:53:49;;;;;;;46.83;22.63;;;-1.00;99.90;;;;;;4863740;29;20055;-75
2024/01/11 06:56:22;;;;;;;45.35;21.30;;;-1.00;99.90;;;;;;4863732;29;20056;-75
2024/01/11 06:58:48;;;;;;;;;;;-1.00;99.90;;;;;;4864047;29;20048;-75
2024/01/11 07:01:13;;;;;;;51.42;22.98;;;-0.90;99.90;;;;;;4863673;29;19923;-75
2024/01/11 07:03:39;;;;;;;46.53;22.75;;;-0.90;99.90;;;;;;4863958;29;20040;-75
2024/01/11 07:06:06;;;;;;;44.88;20.95;;;-0.90;99.90;;;;;;4863240;29;20053;-75
2024/01/11 07:08:34;;;;;;;48.53;21.00;;;-0.90;99.90;;;;;;4880208;29;20057;-75
2024/01/11 07:11:02;;;;;;;45.72;20.52;;;-0.90;99.90;;;;;;4863880;29;20488;-75
2024/01/11 07:13:28;;;;;;;47.75;22.60;;;-0.90;99.90;;;;;;4863762;29;20053;-75
2024/01/11 07:15:55;;;;;;;46.97;21.52;;;-0.90;99.90;;;;;;4863245;29;20119;-75
2024/01/11 07:18:21;;;;;;;45.83;20.52;;;-0.90;99.90;;;;;;4863354;29;20059;-75
2024/01/11 07:20:47;;;;;;;48.20;22.65;;;-0.80;99.90;;;;;;4863609;29;20108;-75
2024/01/11 07:23:14;;;;;;;48.15;21.77;;;-0.80;99.90;;;;;;4863563;29;20056;-75
2024/01/11 07:25:40;;;;;;;46.40;22.92;;;-0.80;99.90;;;;;;4863230;29;20562;-75
2024/01/11 07:28:06;;;;;;;50.97;22.10;;;-0.80;99.90;;;;;;4863615;29;20107;-75
2024/01/11 07:30:32;;;;;;;50.25;22.40;;;-0.80;99.90;;;;;;4863104;29;20097;-75
2024/01/11 07:32:58;;;;;;;44.25;22.15;;;-0.80;99.90;;;;;;4863511;29;20057;-75
2024/01/11 07:35:23;;;;;;;49.13;22.45;;;-0.80;99.90;;;;;;4863089;29;20191;-76
2024/01/11 07:37:49;;;;;;;48.08;22.00;;;-0.70;99.90;;;;;;4863219;29;20140;-76
2024/01/11 07:40:16;;;;;;;45.92;21.58;;;-0.70;99.90;;;;;;4863152;29;20160;-75
2024/01/11 07:42:42;;;;;;;43.15;20.38;;;-0.70;99.90;;;;;;4879825;29;20049;-76
2024/01/11 07:45:12;;;;;;;45.75;21.15;;;-0.70;99.90;;;;;;4863203;29;20053;-75
2024/01/11 07:47:38;;;;;;;43.30;20.95;;;-0.70;99.90;;;;;;4861949;29;20104;-75
2024/01/11 07:50:23;;;;;;;47.03;21.55;;;-0.60;99.90;;;;;;4878171;29;20052;-76
2024/01/11 07:52:49;;;;;;;44.40;22.13;;;-0.60;99.90;;;;;;4862920;29;20093;-76
2024/01/11 07:55:15;;;;;;;43.35;21.23;;;-0.60;99.90;;;;;;4862904;29;20056;-76
2024/01/11 07:57:41;;;;;;;44.83;21.45;;;-0.60;99.90;;;;;;4878326;29;20124;-75
2024/01/11 08:00:07;;;;;;;44.97;23.23;;;-0.60;99.90;;;;;;4862703;29;20136;-75
2024/01/11 08:02:33;;;;;;;44.42;20.75;;;-0.60;99.90;;;;;;4863027;29;20073;-75
2024/01/11 08:05:00;;;;;;;42.92;21.65;;;-0.60;99.90;;;;;;4855947;29;20061;-75
2024/01/11 08:07:29;;;;;;;44.85;20.65;;;-0.60;99.90;;;;;;4851933;29;20058;-75
2024/01/11 08:09:55;;;;;;;45.00;21.02;;;-0.60;99.90;;;;;;4844376;29;20053;-76
2024/01/11 08:12:21;;;;;;;48.05;23.17;;;-0.50;99.90;;;;;;4844117;29;20101;-75
2024/01/11 08:14:47;;;;;;;48.47;23.42;;;-0.50;99.90;;;;;;4847761;29;20057;-75
2024/01/11 08:17:16;;;;;;;46.75;24.88;;;-0.50;99.90;;;;;;4847635;29;20065;-75
2024/01/11 08:19:44;;;;;;;44.28;22.83;;;-0.50;99.90;;;;;;4847594;29;20073;-75
2024/01/11 08:22:11;;;;;;;48.95;22.60;;;-0.50;99.90;;;;;;4847492;29;20137;-75
2024/01/11 08:24:37;;;;;;;42.80;21.63;;;-0.50;99.90;;;;;;4847567;29;20124;-79
2024/01/11 08:27:03;;;;;;;40.88;20.85;;;-0.40;99.90;;;;;;4847234;29;20190;-75
2024/01/11 08:29:29;;;;;;;44.35;22.13;;;-0.40;99.90;;;;;;4864271;29;20041;-75
2024/01/11 08:31:55;;;;;;;41.78;20.75;;;-0.40;99.90;;;;;;4864233;29;20053;-75
2024/01/11 08:34:21;;;;;;;40.60;19.02;;;-0.30;99.90;;;;;;4847414;29;20050;-75
2024/01/11 08:36:47;;;;;;;44.95;21.73;;;-0.30;99.90;;;;;;4847322;29;20509;-77
2024/01/11 08:39:14;;;;;;;49.38;20.83;;;-0.30;99.90;;;;;;4847272;29;20533;-75
2024/01/11 08:41:40;;;;;;;42.83;19.15;;;-0.20;99.90;;;;;;4847349;29;20060;-75
2024/01/11 08:44:06;;;;;;;38.95;19.67;;;-0.20;99.90;;;;;;4847228;29;20459;-75
2024/01/11 08:46:35;;;;;;;36.42;18.73;;;-0.20;99.90;;;;;;4847074;29;20057;-76
2024/01/11 08:49:03;;;;;;;39.13;20.33;;;-0.20;99.90;;;;;;4847050;29;20051;-76
2024/01/11 08:51:29;;;;;;;41.92;19.05;;;-0.10;99.90;;;;;;4847267;29;20510;-77
2024/01/11 08:53:55;;;;;;;32.58;16.02;;;-0.10;99.90;;;;;;4846961;29;20124;-77
2024/01/11 08:56:21;;;;;;;23.00;10.02;;;0.00;99.90;;;;;;4847013;29;20141;-76
2024/01/11 08:58:53;;;;;;;10.43;4.05;;;0.10;99.90;;;;;;4847000;29;20045;-77
2024/01/11 09:01:19;;;;;;;5.05;2.20;;;0.30;99.90;;;;;;4847170;29;20061;-76
2024/01/11 09:03:44;;;;;;;2.42;1.52;;;0.60;99.90;;;;;;4847069;29;20137;-75
2024/01/11 09:06:13;;;;;;;3.25;1.42;;;0.90;99.90;;;;;;4846633;29;20053;-76
2024/01/11 09:08:41;;;;;;;4.13;1.52;;;1.20;99.90;;;;;;4846658;29;20071;-76
2024/01/11 09:11:06;;;;;;;8.73;1.67;;;1.30;99.90;;;;;;4846751;29;20072;-76
2024/01/11 09:13:32;;;;;;;4.43;1.73;;;1.50;99.90;;;;;;4846831;29;20084;-76
2024/01/11 09:15:58;;;;;;;5.57;1.17;;;1.70;99.90;;;;;;4846717;29;20497;-75
2024/01/11 09:18:23;;;;;;;3.70;1.40;;;1.80;99.90;;;;;;4846617;29;20050;-76
2024/01/11 09:20:49;;;;;;;4.15;0.93;;;2.00;99.90;;;;;;4846566;29;20057;-76
2024/01/11 09:23:17;;;;;;;4.57;0.80;;;2.10;99.90;;;;;;4846401;29;20052;-76
2024/01/11 09:25:43;;;;;;;2.28;0.60;;;2.20;99.90;;;;;;4845316;29;20060;-76
2024/01/11 09:28:09;;;;;;;3.13;1.05;;;2.40;99.90;;;;;;4846283;29;20050;-76
2024/01/11 09:30:34;;;;;;;5.38;1.13;;;2.50;99.90;;;;;;4846749;29;20049;-76
2024/01/11 09:33:00;;;;;;;8.23;2.05;;;2.50;99.90;;;;;;4862989;29;20424;-76
2024/01/11 09:35:26;;;;;;;5.70;1.60;;;2.50;99.90;;;;;;4846313;29;20080;-76
2024/01/11 09:37:52;;;;;;;4.65;1.55;;;2.50;99.90;;;;;;4846147;29;20041;-76
2024/01/11 09:40:18;;;;;;;5.20;1.40;;;2.60;99.90;;;;;;4846240;29;20060;-76
2024/01/11 09:42:44;;;;;;;5.40;1.65;;;2.60;99.90;;;;;;4846482;29;20486;-76
2024/01/11 09:45:13;;;;;;;4.22;1.90;;;2.60;99.90;;;;;;4846137;29;20050;-76
2024/01/11 09:47:40;;;;;;;5.88;1.48;;;2.70;99.90;;;;;;4846049;29;20689;-76
2024/01/11 09:50:10;;;;;;;3.70;1.38;;;2.80;99.90;;;;;;4846120;29;20088;-76
2024/01/11 09:52:38;;;;;;;4.45;1.63;;;2.90;99.90;;;;;;4846020;29;20049;-76
2024/01/11 09:55:04;;;;;;;5.13;1.60;;;2.90;99.90;;;;;;4845908;29;20064;-76
2024/01/11 09:57:32;;;;;;;6.35;1.25;;;3.00;99.90;;;;;;4846120;29;20049;-75
2024/01/11 09:59:58;;;;;;;6.97;1.38;;;3.00;99.90;;;;;;4846209;29;20054;-75
2024/01/11 10:02:27;;;;;;;6.63;1.50;;;3.10;99.90;;;;;;4845857;29;20053;-75
2024/01/11 10:04:54;;;;;;;3.08;1.08;;;3.10;99.90;;;;;;4845649;29;20080;-76
2024/01/11 10:07:24;;;;;;;4.10;1.30;;;3.20;99.90;;;;;;4845727;29;20414;-76
2024/01/11 10:09:51;;;;;;;4.80;1.33;;;3.20;99.90;;;;;;4845928;29;20073;-76
2024/01/11 10:12:23;;;;;;;6.65;1.60;;;3.30;99.90;;;;;;4845919;29;20132;-76
2024/01/11 10:14:48;;;;;;;6.10;1.40;;;3.40;99.90;;;;;;4845553;29;20045;-76
2024/01/11 10:17:14;;;;;;;8.75;1.70;;;3.50;99.90;;;;;;4845573;29;20124;-76
2024/01/11 10:19:40;;;;;;;5.85;1.35;;;3.50;99.90;;;;;;4845448;29;20049;-75
2024/01/11 10:22:06;;;;;;;17.33;1.63;;;3.50;99.90;;;;;;4845772;29;20077;-76
2024/01/11 10:24:32;;;;;;;7.88;1.58;;;3.50;99.90;;;;;;4845696;29;20045;-75
2024/01/11 10:27:01;;;;;;;7.43;1.52;;;3.50;99.90;;;;;;4854924;29;20457;-76
2024/01/11 10:29:36;;;;;;;7.93;2.17;;;3.60;99.90;;;;;;4872459;29;20048;-76
2024/01/11 10:32:03;;;;;;;6.05;1.50;;;3.60;99.90;;;;;;4870395;29;20063;-76
2024/01/11 10:34:29;;;;;;;10.95;2.28;;;3.60;99.90;;;;;;4871898;29;20051;-75
2024/01/11 10:36:56;;;;;;;4.03;1.52;;;3.60;99.90;;;;;;4880315;29;20045;-76
2024/01/11 10:39:25;;;;;;;13.98;2.40;;;3.70;99.90;;;;;;4895694;29;20041;-76
2024/01/11 10:42:04;;;;;;;10.82;2.58;;;3.70;99.90;;;;;;4882395;29;20052;-75
2024/01/11 10:44:33;;;;;;;5.80;1.83;;;3.80;99.90;;;;;;4878468;29;20088;-75
2024/01/11 10:47:01;;;;;;;9.27;2.50;;;3.80;99.90;;;;;;4880018;29;20056;-75
2024/01/11 10:49:27;;;;;;;13.43;3.15;;;3.90;99.90;;;;;;4882096;29;20097;-75
2024/01/11 10:52:01;;;;;;;11.35;2.80;;;3.90;99.90;;;;;;4882295;29;20040;-76
2024/01/11 10:54:28;;;;;;;11.15;2.38;;;4.00;99.90;;;;;;4899049;29;20052;-75
2024/01/11 10:56:56;;;;;;;20.83;3.10;;;4.00;99.90;;;;;;4882131;29;20060;-75
2024/01/11 10:59:24;;;;;;;17.05;3.40;;;4.10;99.90;;;;;;4881982;29;20108;-76
2024/01/11 11:01:56;;;;;;;28.95;3.72;;;4.10;99.90;;;;;;4881760;29;20056;-76
2024/01/11 11:04:23;;;;;;;20.77;3.15;;;4.10;99.90;;;;;;4882027;29;20055;-74
2024/01/11 11:07:01;;;;;;;16.55;3.17;;;4.10;99.90;;;;;;4898303;29;20092;-74
2024/01/11 11:09:28;;;;;;;24.33;3.17;;;4.10;99.90;;;;;;4881979;29;20048;-75
2024/01/11 11:11:58;;;;;;;18.90;3.25;;;4.10;99.90;;;;;;4881926;29;20127;-74
2024/01/11 11:14:28;;;;;;;19.08;3.60;;;4.10;99.90;;;;;;4881966;29;20516;-76
2024/01/11 11:16:54;;;;;;;18.23;3.72;;;4.00;99.90;;;;;;4881674;29;20127;-76
2024/01/11 11:19:20;;;;;;;28.58;3.00;;;4.00;99.90;;;;;;4881793;29;20143;-76
2024/01/11 11:21:47;;;;;;;20.50;3.05;;;4.00;99.90;;;;;;4881508;29;20108;-76
2024/01/11 11:24:14;;;;;;;19.98;3.25;;;4.00;99.90;;;;;;4881565;29;20047;-74
2024/01/11 11:26:40;;;;;;;15.05;3.20;;;4.00;99.90;;;;;;4871490;29;20057;-75
2024/01/11 11:29:06;;;;;;;25.83;4.03;;;4.10;99.90;;;;;;4863072;29;20141;-74
2024/01/11 11:31:36;;;;;;;24.73;6.03;;;4.10;99.90;;;;;;4879526;29;20127;-74
2024/01/11 11:34:04;;;;;;;17.15;3.17;;;4.10;99.90;;;;;;4863137;29;20041;-74
2024/01/11 11:36:30;;;;;;;22.90;4.80;;;4.10;99.90;;;;;;4863087;29;20049;-73
2024/01/11 11:39:00;;;;;;;20.63;3.95;;;4.10;99.90;;;;;;4862837;29;20084;-74
2024/01/11 11:41:32;;;;;;;25.85;3.75;;;4.10;99.90;;;;;;4862891;29;20049;-74
2024/01/11 11:44:02;;;;;;;24.95;4.25;;;4.10;99.90;;;;;;4862748;29;20045;-79
2024/01/11 11:46:28;;;;;;;20.23;3.42;;;4.10;99.90;;;;;;4862727;29;20501;-79
2024/01/11 11:48:55;;;;;;;26.30;3.92;;;4.10;99.90;;;;;;4865528;29;20049;-75
2024/01/11 11:51:21;;;;;;;19.20;3.80;;;4.10;99.90;;;;;;4866813;29;20127;-75
2024/01/11 11:53:48;;;;;;;19.10;3.75;;;4.20;99.90;;;;;;4866373;29;20064;-75
2024/01/11 11:56:16;;;;;;;19.27;3.58;;;4.20;99.90;;;;;;4865882;29;20052;-75
2024/01/11 11:58:43;;;;;;;24.52;3.85;;;4.30;99.90;;;;;;4883179;29;20093;-75
2024/01/11 12:01:09;;;;;;;21.00;3.78;;;4.30;99.90;;;;;;4866752;29;20041;-75
2024/01/11 12:03:37;;;;;;;22.90;4.50;;;4.30;99.90;;;;;;4866209;29;20508;-75
2024/01/11 12:06:08;;;;;;;26.85;4.03;;;4.40;99.90;;;;;;4866197;29;20053;-75
2024/01/11 12:08:35;;;;;;;18.83;4.45;;;4.40;99.90;;;;;;4866253;29;20184;-75
2024/01/11 12:11:02;;;;;;;19.52;2.97;;;4.40;99.90;;;;;;4866225;29;20040;-75
2024/01/11 12:13:28;;;;;;;25.80;4.07;;;4.40;99.90;;;;;;4866431;29;20057;-75
2024/01/11 12:15:55;;;;;;;24.58;4.18;;;4.40;99.90;;;;;;4866414;29;20049;-75
2024/01/11 12:18:20;;;;;;;27.55;4.22;;;4.40;99.90;;;;;;4867039;29;20044;-75
2024/01/11 12:20:46;;;;;;;19.98;3.63;;;4.50;99.90;;;;;;4880157;29;20047;-75
2024/01/11 12:23:13;;;;;;;23.02;4.03;;;4.50;99.90;;;;;;4884020;29;20131;-74
2024/01/11 12:25:41;;;;;;;26.73;4.30;;;4.50;99.90;;;;;;4883623;29;20123;-74
2024/01/11 12:28:07;;;;;;;39.92;5.85;;;4.50;99.90;;;;;;4901068;29;20052;-75
2024/01/11 12:30:33;;;;;;;28.00;4.20;;;4.40;99.90;;;;;;4884662;29;20116;-76